Time;durP1;ratioP1;P1;durP2;ratioP2;P2;SDS_P1;SDS_P2;PMS_P1;PMS_P2;Temp;Humidity;BMP_temperature;BMP_pressure;BME280_temperature;BME280_humidity;BME280_pressure;Samples;Min_cycle;Max_cycle;Signal;HPM_P1;HPM_P2
2023/01/23 00:09:34;;;;;;;10.10;5.45;;;;;;;20.77;53.45;101236.63;20922125;28;20025;-85
2023/01/23 00:19:34;;;;;;;7.75;5.28;;;;;;;20.75;53.48;101223.59;20921821;28;20103;-85
2023/01/23 00:29:35;;;;;;;9.90;5.70;;;;;;;20.73;53.43;101216.72;20920822;28;20037;-85
2023/01/23 00:39:35;;;;;;;8.55;5.30;;;;;;;20.70;53.52;101227.41;20938314;28;20033;-85
2023/01/23 00:49:35;;;;;;;6.93;5.18;;;;;;;20.70;53.27;101222.13;20941596;28;20052;-87
2023/01/23 00:59:36;;;;;;;7.25;4.80;;;;;;;20.68;53.64;101226.63;20929560;28;20120;-86
2023/01/23 01:09:36;;;;;;;8.30;5.22;;;;;;;20.69;53.52;101223.06;20921066;28;20041;-86
2023/01/23 01:19:37;;;;;;;6.88;4.57;;;;;;;20.67;53.48;101236.31;20938666;28;20984;-84
2023/01/23 01:29:38;;;;;;;7.20;4.65;;;;;;;20.64;53.74;101197.03;20955392;28;20091;-83
2023/01/23 01:39:39;;;;;;;8.13;5.00;;;;;;;20.61;53.96;101192.81;20950381;28;20076;-84
2023/01/23 01:49:39;;;;;;;6.85;4.50;;;;;;;20.61;53.85;101208.59;20956193;28;21110;-84
2023/01/23 02:00:05;;;;;;;6.97;4.55;;;;;;;20.59;54.03;101214.91;20942532;28;20587;-84
2023/01/23 02:10:09;;;;;;;7.50;4.57;;;;;;;20.58;53.57;101202.69;20933820;28;20165;-85
2023/01/23 02:20:22;;;;;;;5.18;4.07;;;;;;;20.55;53.64;101195.81;20945420;28;20044;-84
2023/01/23 02:30:23;;;;;;;6.65;4.18;;;;;;;20.53;53.83;101187.19;20959960;28;21253;-83
2023/01/23 02:40:36;;;;;;;6.80;4.13;;;;;;;20.52;53.60;101188.13;20934094;28;20139;-86
2023/01/23 02:50:37;;;;;;;7.97;4.78;;;;;;;20.51;53.96;101175.06;20947450;28;20041;-86
2023/01/23 03:00:37;;;;;;;7.20;4.47;;;;;;;20.52;53.69;101168.84;20954642;28;20066;-85
2023/01/23 03:10:38;;;;;;;5.50;4.07;;;;;;;20.53;53.73;101146.88;20939632;28;20261;-85
2023/01/23 03:20:40;;;;;;;5.43;3.88;;;;;;;20.52;53.97;101148.66;20928737;28;20048;-86
2023/01/23 03:30:40;;;;;;;5.30;3.83;;;;;;;20.51;53.83;101154.00;20933868;28;21506;-84
2023/01/23 03:51:00;;;;;;;6.38;3.80;;;;;;;20.47;53.82;101146.31;20923471;28;20036;-85
2023/01/23 04:01:04;;;;;;;5.43;3.92;;;;;;;20.46;53.85;101142.00;20925179;28;20066;-84
2023/01/23 04:11:07;;;;;;;4.95;3.50;;;;;;;20.47;53.76;101140.22;20937046;28;20035;-85
2023/01/23 04:21:08;;;;;;;5.63;3.45;;;;;;;20.46;53.59;101149.88;20932998;28;20049;-84
2023/01/23 04:31:08;;;;;;;4.60;3.45;;;;;;;20.43;54.08;101142.22;20928321;28;20075;-85
2023/01/23 04:41:23;;;;;;;5.28;3.35;;;;;;;20.37;54.49;101147.00;20940476;28;20044;-84
2023/01/23 04:51:24;;;;;;;5.95;3.67;;;;;;;20.40;54.20;101152.06;20927910;28;20044;-85
2023/01/23 05:01:25;;;;;;;5.38;3.45;;;;;;;20.39;54.25;101153.84;20915305;28;20144;-81
2023/01/23 05:11:26;;;;;;;4.90;3.13;;;;;;;20.43;54.44;101181.66;20902987;28;20437;-84
2023/01/23 05:21:26;;;;;;;4.18;3.10;;;;;;;20.47;54.73;101177.91;20931272;28;20041;-76
2023/01/23 05:31:27;;;;;;;8.80;3.60;;;;;;;20.53;56.12;101183.72;20884892;28;20036;-77
2023/01/23 05:41:28;;;;;;;23.85;5.22;;;;;;;20.60;56.13;101170.09;20914511;28;20049;-79
2023/01/23 05:51:31;;;;;;;22.13;4.57;;;;;;;20.68;55.34;101184.53;20899248;28;20183;-76
2023/01/23 06:01:32;;;;;;;24.30;5.05;;;;;;;20.78;55.93;101193.59;20897358;28;20044;-80
2023/01/23 06:11:32;;;;;;;20.30;6.47;;;;;;;20.83;54.09;101212.56;20906541;28;20044;-83
2023/01/23 06:21:35;;;;;;;14.38;5.32;;;;;;;20.87;52.32;101223.75;20889751;28;20033;-77
2023/01/23 06:31:37;;;;;;;16.47;5.33;;;;;;;20.91;52.71;101254.19;20919580;28;20040;-75
2023/01/23 06:41:38;;;;;;;10.13;4.85;;;;;;;20.99;52.97;101259.00;20920264;28;20044;-78
2023/01/23 06:51:38;;;;;;;10.43;4.78;;;;;;;21.05;53.49;101248.06;20922752;28;20064;-81
2023/01/23 07:01:39;;;;;;;10.50;4.68;;;;;;;21.12;53.36;101257.28;20894118;28;20389;-79
2023/01/23 07:11:45;;;;;;;9.50;4.18;;;;;;;21.17;52.72;101264.91;20923944;28;20045;-79
2023/01/23 07:21:47;;;;;;;9.55;4.03;;;;;;;21.23;52.71;101281.13;20935477;28;20063;-80
2023/01/23 07:31:48;;;;;;;10.77;4.18;;;;;;;21.28;52.42;101289.59;20898698;28;20051;-80
2023/01/23 07:41:48;;;;;;;8.02;3.58;;;;;;;21.35;52.29;101294.47;20906789;28;20049;-80
2023/01/23 07:51:49;;;;;;;8.10;3.67;;;;;;;21.40;52.45;101290.59;20905345;28;20048;-80
2023/01/23 08:01:51;;;;;;;8.68;3.95;;;;;;;21.46;52.24;101301.69;20893896;28;20296;-80
2023/01/23 08:11:52;;;;;;;6.73;3.27;;;;;;;21.51;52.05;101302.25;20907569;28;20044;-80
2023/01/23 08:21:54;;;;;;;6.97;3.92;;;;;;;21.54;51.65;101288.88;20932215;28;20068;-80
2023/01/23 08:31:54;;;;;;;8.73;4.60;;;;;;;21.59;51.09;101294.72;20920937;28;20037;-80
2023/01/23 08:41:55;;;;;;;11.88;6.22;;;;;;;21.62;50.90;101307.69;20930231;28;20041;-82
2023/01/23 08:51:56;;;;;;;11.07;6.45;;;;;;;21.65;51.13;101311.94;20932802;28;20135;-81
2023/01/23 09:01:56;;;;;;;11.07;7.15;;;;;;;21.67;50.74;101316.16;20931903;28;20507;-78
2023/01/23 09:11:57;;;;;;;11.52;7.13;;;;;;;21.67;50.51;101313.50;20923495;28;20037;-78
2023/01/23 09:21:57;;;;;;;9.68;6.70;;;;;;;21.69;50.58;101316.03;20905519;28;20037;-81
2023/01/23 09:31:58;;;;;;;12.75;7.68;;;;;;;21.69;50.23;101314.28;20923578;28;20407;-80
2023/01/23 09:42:06;;;;;;;11.35;7.53;;;;;;;21.71;50.21;101304.44;20923718;28;20052;-79
2023/01/23 09:52:30;;;;;;;12.05;8.10;;;;;;;21.73;50.13;101307.00;20929064;28;20052;-79
2023/01/23 10:02:31;;;;;;;11.93;7.72;;;;;;;21.77;50.30;101303.22;20913403;28;20410;-80
2023/01/23 10:12:34;;;;;;;13.02;8.30;;;;;;;21.85;50.08;101305.34;20915418;28;20497;-79
2023/01/23 10:23:00;;;;;;;12.00;8.40;;;;;;;21.89;49.86;101306.84;20925356;28;20053;-79
2023/01/23 10:33:12;;;;;;;12.30;7.95;;;;;;;21.93;49.43;101300.41;20907904;28;20087;-79
2023/01/23 10:43:22;;;;;;;12.95;7.95;;;;;;;22.02;49.42;101289.25;20916587;28;20040;-79
2023/01/23 10:53:24;;;;;;;12.70;8.60;;;;;;;22.08;49.24;101280.06;20904490;28;20455;-79
2023/01/23 11:03:33;;;;;;;18.23;9.93;;;;;;;22.07;49.10;101278.41;20909516;28;21037;-77
2023/01/23 11:13:33;;;;;;;16.50;9.52;;;;;;;22.10;49.05;101274.72;20934066;28;20041;-80
2023/01/23 11:23:34;;;;;;;17.95;10.07;;;;;;;22.17;49.11;101265.44;20929114;28;20041;-80
2023/01/23 11:34:22;;;;;;;17.95;10.73;;;;;;;22.25;49.26;101254.38;20948476;28;20049;-81
2023/01/23 11:44:23;;;;;;;53.75;29.00;;;;;;;22.36;49.75;101236.00;20908547;28;20040;-89
2023/01/23 11:54:57;;;;;;;51.00;28.70;;;;;;;22.44;49.33;101236.34;20928942;28;20422;-83
2023/01/23 12:05:26;;;;;;;45.75;25.08;;;;;;;22.45;49.43;101248.59;20917354;28;20040;-81
2023/01/23 12:15:39;;;;;;;35.33;22.58;;;;;;;22.50;49.47;101251.75;20893323;28;20064;-82
2023/01/23 12:25:44;;;;;;;36.78;21.08;;;;;;;22.59;49.24;101244.97;20918101;28;20110;-84
2023/01/23 12:36:32;;;;;;;30.88;20.13;;;;;;;22.63;49.45;101238.56;20880886;28;20043;-87
2023/01/23 12:46:58;;;;;;;27.33;17.63;;;;;;;22.60;49.50;101241.41;20932344;28;20072;-88
2023/01/23 12:57:03;;;;;;;27.10;16.73;;;;;;;22.66;49.73;101242.78;20928495;28;20052;-82
2023/01/23 13:07:36;;;;;;;26.15;15.65;;;;;;;22.70;49.64;101257.44;20940633;28;20033;-83
2023/01/23 13:17:56;;;;;;;22.95;14.05;;;;;;;22.79;49.48;101248.00;20933042;28;20045;-84
2023/01/23 13:27:57;;;;;;;23.50;14.77;;;;;;;22.83;49.96;101250.34;20904401;28;20056;-89
2023/01/23 13:37:58;;;;;;;22.92;13.45;;;;;;;22.81;49.95;101267.25;20928587;28;20044;-84
2023/01/23 13:58:55;;;;;;;18.23;11.95;;;;;;;22.70;50.18;101270.63;20914161;28;20041;-87
2023/01/23 14:08:56;;;;;;;19.35;12.73;;;;;;;22.64;50.15;101273.69;20905673;28;20056;-86
2023/01/23 14:18:58;;;;;;;18.53;11.10;;;;;;;22.60;50.25;101275.72;20917636;28;20048;-85
2023/01/23 14:29:03;;;;;;;18.02;11.30;;;;;;;22.53;50.10;101275.31;20927480;28;20049;-83
2023/01/23 14:39:04;;;;;;;16.52;10.70;;;;;;;22.54;50.22;101270.84;20946508;28;20479;-87
2023/01/23 14:49:07;;;;;;;14.50;9.25;;;;;;;22.50;49.82;101280.78;20924411;28;20076;-88
2023/01/23 14:59:22;;;;;;;15.68;9.45;;;;;;;22.48;49.98;101298.50;20917872;28;20065;-87
2023/01/23 15:09:40;;;;;;;14.15;8.75;;;;;;;22.43;49.80;101297.16;20916952;28;20070;-86
2023/01/23 15:19:40;;;;;;;16.70;8.90;;;;;;;22.37;50.23;101291.31;20927022;28;20033;-86
2023/01/23 15:29:43;;;;;;;12.63;8.55;;;;;;;22.33;50.88;101295.09;20933409;28;20554;-86
2023/01/23 15:40:01;;;;;;;16.23;7.78;;;;;;;22.28;50.40;101313.03;20926007;28;20739;-87
2023/01/23 15:50:01;;;;;;;16.08;8.13;;;;;;;22.23;50.16;101310.72;20912140;28;20083;-88
2023/01/23 16:00:12;;;;;;;14.85;7.43;;;;;;;22.20;50.47;101318.84;20912541;28;20102;-84
2023/01/23 16:10:21;;;;;;;10.05;6.80;;;;;;;22.20;50.67;101325.91;20910323;28;20117;-82
2023/01/23 16:20:26;;;;;;;11.10;7.45;;;;;;;22.15;51.04;101336.75;20908938;28;20166;-86
2023/01/23 16:30:27;;;;;;;17.42;7.88;;;;;;;22.12;51.07;101330.84;20887548;28;20059;-87
2023/01/23 16:40:31;;;;;;;12.30;7.25;;;;;;;22.11;51.96;101347.63;20907869;28;20036;-85
2023/01/23 16:50:48;;;;;;;13.15;6.28;;;;;;;22.11;52.51;101351.09;20917139;28;20041;-84
2023/01/23 17:00:50;;;;;;;9.95;6.15;;;;;;;22.11;52.57;101356.38;20887442;28;20075;-86
2023/01/23 17:10:54;;;;;;;;;;;;;;;22.04;52.38;101370.91;20907967;28;20403;-85
2023/01/23 17:20:56;;;;;;;11.93;6.28;;;;;;;21.99;51.88;101384.41;20910638;28;19924;-85
2023/01/23 17:31:01;;;;;;;17.73;6.67;;;;;;;22.00;52.09;101378.19;20904207;28;20044;-83
2023/01/23 17:41:03;;;;;;;13.95;6.25;;;;;;;22.01;52.70;101393.06;20900329;28;20389;-84
2023/01/23 17:51:08;;;;;;;14.30;6.03;;;;;;;21.99;53.24;101392.31;20918120;28;20139;-86
2023/01/23 18:01:24;;;;;;;17.27;8.65;;;;;;;22.00;53.45;101387.91;20884918;28;20072;-85
2023/01/23 18:11:26;;;;;;;29.02;11.40;;;;;;;22.00;53.81;101398.44;20905422;28;20534;-85
2023/01/23 18:21:29;;;;;;;30.93;11.90;;;;;;;21.99;54.25;101407.28;20921711;28;20056;-82
2023/01/23 18:31:44;;;;;;;28.63;11.00;;;;;;;21.95;54.25;101401.38;20923223;28;20032;-83
2023/01/23 18:42:17;;;;;;;27.52;10.13;;;;;;;21.94;54.36;101396.22;20934767;28;20052;-83
2023/01/23 18:52:26;;;;;;;22.42;9.77;;;;;;;21.94;53.90;101394.41;20934366;28;20137;-83
2023/01/23 19:02:51;;;;;;;27.75;9.50;;;;;;;21.93;54.09;101405.06;20922071;28;20131;-81
2023/01/23 19:13:19;;;;;;;19.70;8.57;;;;;;;21.89;54.44;101421.06;20904793;28;20040;-78
2023/01/23 19:23:38;;;;;;;24.85;8.20;;;;;;;21.89;55.08;101431.59;20932261;28;20032;-82
2023/01/23 19:33:39;;;;;;;21.25;8.32;;;;;;;21.89;54.70;101431.59;20921591;28;20186;-86
2023/01/23 19:43:41;;;;;;;24.98;7.40;;;;;;;21.83;53.94;101436.44;20904900;28;20043;-82
2023/01/23 19:53:43;;;;;;;12.77;6.97;;;;;;;21.84;53.90;101443.41;20924655;28;20043;-82
2023/01/23 20:03:44;;;;;;;14.27;6.97;;;;;;;21.83;54.03;101449.63;20918379;28;20049;-84
2023/01/23 20:13:45;;;;;;;16.27;7.63;;;;;;;21.83;53.48;101461.00;20937435;28;20114;-91
2023/01/23 20:23:47;;;;;;;15.57;7.43;;;;;;;21.66;52.33;101469.13;20901021;28;20044;-84
2023/01/23 20:33:49;;;;;;;12.60;7.10;;;;;;;21.70;53.24;101470.63;20946593;28;20047;-83
2023/01/23 20:43:50;;;;;;;14.40;6.85;;;;;;;21.68;53.54;101483.03;20942246;28;20067;-85
2023/01/23 20:53:51;;;;;;;13.13;6.68;;;;;;;21.67;53.81;101494.56;20953837;28;20044;-85
2023/01/23 21:03:52;;;;;;;13.77;6.85;;;;;;;21.65;53.97;101499.06;20921735;28;20047;-85
2023/01/23 21:13:53;;;;;;;9.63;6.55;;;;;;;21.64;54.19;101519.31;20951951;28;20032;-85
2023/01/23 21:23:53;;;;;;;12.32;6.57;;;;;;;21.61;54.28;101522.13;20925820;28;20041;-85
2023/01/23 21:33:57;;;;;;;11.38;6.72;;;;;;;21.61;54.71;101532.69;20922581;28;20059;-85
2023/01/23 21:43:58;;;;;;;14.18;7.00;;;;;;;21.61;54.86;101542.38;20990725;28;20033;-82
2023/01/23 21:53:59;;;;;;;11.05;6.30;;;;;;;21.59;54.73;101545.09;21005402;28;20051;-84
2023/01/23 22:04:08;;;;;;;11.50;6.47;;;;;;;21.57;54.83;101547.00;20954137;28;20044;-83
2023/01/23 22:14:08;;;;;;;9.75;6.28;;;;;;;21.57;55.32;101549.63;20937993;28;20093;-83
2023/01/23 22:24:09;;;;;;;9.20;5.82;;;;;;;21.54;55.01;101553.25;20942452;28;20571;-83
2023/01/23 22:34:13;;;;;;;9.68;5.50;;;;;;;21.53;55.34;101567.38;20925591;28;20045;-82
2023/01/23 22:44:15;;;;;;;11.18;6.60;;;;;;;21.52;55.68;101578.00;20931192;28;20072;-81
2023/01/23 22:54:16;;;;;;;11.20;6.40;;;;;;;21.52;55.59;101597.31;20936993;28;20037;-83
2023/01/23 23:04:16;;;;;;;9.00;5.40;;;;;;;21.51;55.59;101600.88;20931689;28;20499;-81
2023/01/23 23:14:17;;;;;;;8.80;5.88;;;;;;;21.50;55.61;101607.09;20929652;28;20040;-83
2023/01/23 23:24:17;;;;;;;8.38;5.53;;;;;;;21.46;55.68;101608.22;20939814;28;20098;-83
2023/01/23 23:34:18;;;;;;;9.63;5.90;;;;;;;21.42;55.43;101610.19;20930218;28;20446;-83
2023/01/23 23:44:20;;;;;;;8.40;5.55;;;;;;;21.40;55.61;101600.69;20915524;28;20131;-83
2023/01/23 23:54:20;;;;;;;8.55;5.30;;;;;;;21.39;56.03;101610.34;20924939;28;20430;-83
